Time;durP1;ratioP1;P1;durP2;ratioP2;P2;SDS_P1;SDS_P2;PMS_P1;PMS_P2;Temp;Humidity;BMP_temperature;BMP_pressure;BME280_temperature;BME280_humidity;BME280_pressure;Samples;Min_cycle;Max_cycle;Signal;HPM_P1;HPM_P2
2022/05/22 00:02:21;;;;;;;;;;;10.30;99.90;;;;;;4971610;28;19931;-79
2022/05/22 00:04:47;;;;;;;;;;;10.40;99.90;;;;;;4989540;28;19931;-79
2022/05/22 00:07:13;;;;;;;;;;;10.50;99.90;;;;;;4990018;28;19969;-79
2022/05/22 00:09:39;;;;;;;;;;;10.50;99.90;;;;;;4992830;28;20584;-78
2022/05/22 00:12:05;;;;;;;;;;;10.40;99.90;;;;;;4997178;28;19936;-79
2022/05/22 00:14:31;;;;;;;;;;;10.30;99.90;;;;;;4990486;28;20019;-79
2022/05/22 00:16:59;;;;;;;;;;;10.40;99.90;;;;;;4990202;28;20028;-79
2022/05/22 00:19:26;;;;;;;;;;;10.30;99.90;;;;;;4972400;28;21410;-79
2022/05/22 00:21:52;;;;;;;;;;;10.50;99.90;;;;;;4972218;28;19929;-79
2022/05/22 00:24:19;;;;;;;;;;;10.40;99.90;;;;;;4980886;28;19987;-78
2022/05/22 00:26:45;;;;;;;;;;;10.40;99.90;;;;;;4986378;28;19929;-79
2022/05/22 00:29:11;;;;;;;;;;;10.40;99.90;;;;;;4987173;28;20721;-79
2022/05/22 00:31:37;;;;;;;;;;;10.20;99.90;;;;;;4988693;28;19932;-79
2022/05/22 00:34:03;;;;;;;;;;;10.20;99.90;;;;;;4971313;28;20176;-79
2022/05/22 00:36:28;;;;;;;;;;;10.20;99.90;;;;;;4967218;28;19925;-79
2022/05/22 00:38:54;;;;;;;;;;;10.20;99.90;;;;;;4970584;28;20039;-79
2022/05/22 00:41:20;;;;;;;;;;;10.10;99.90;;;;;;4960484;28;20669;-79
2022/05/22 00:43:47;;;;;;;;;;;10.10;99.90;;;;;;4989495;28;19929;-79
2022/05/22 00:46:14;;;;;;;;;;;10.00;99.90;;;;;;4994345;28;20386;-79
2022/05/22 00:48:42;;;;;;;;;;;10.00;99.90;;;;;;4990598;28;19925;-78
2022/05/22 00:51:10;;;;;;;;;;;10.00;99.90;;;;;;4962942;28;20732;-78
2022/05/22 00:53:38;;;;;;;;;;;10.00;99.90;;;;;;4973764;28;20422;-79
2022/05/22 00:56:06;;;;;;;;;;;10.00;99.90;;;;;;4986759;28;20675;-79
2022/05/22 00:58:32;;;;;;;;;;;9.90;99.90;;;;;;4993974;28;20518;-79
2022/05/22 01:00:58;;;;;;;;;;;9.90;99.90;;;;;;4989216;28;19944;-79
2022/05/22 01:03:29;;;;;;;;;;;9.90;99.90;;;;;;4995646;28;19971;-79
2022/05/22 01:05:56;;;;;;;;;;;9.90;99.90;;;;;;4992860;28;19925;-79
2022/05/22 01:08:23;;;;;;;;;;;9.90;99.90;;;;;;4978719;28;20090;-79
2022/05/22 01:10:51;;;;;;;;;;;9.90;99.90;;;;;;4991438;28;19925;-79
2022/05/22 01:13:18;;;;;;;;;;;9.90;99.90;;;;;;4992680;28;19991;-78
2022/05/22 01:15:44;;;;;;;;;;;9.90;99.90;;;;;;4971144;28;19925;-79
2022/05/22 01:18:10;;;;;;;;;;;10.10;99.90;;;;;;4992083;28;19932;-79
2022/05/22 01:20:54;;;;;;;;;;;10.10;99.90;;;;;;4991611;28;19926;-79
2022/05/22 01:23:21;;;;;;;;;;;10.10;99.90;;;;;;4989275;28;20661;-79
2022/05/22 01:25:47;;;;;;;;;;;10.10;99.90;;;;;;4973636;28;20852;-78
2022/05/22 01:28:14;;;;;;;;;;;10.00;99.90;;;;;;4991346;28;19940;-79
2022/05/22 01:30:40;;;;;;;;;;;9.90;99.90;;;;;;4972803;28;19936;-78
2022/05/22 01:33:06;;;;;;;;;;;9.80;99.90;;;;;;4993387;28;20390;-79
2022/05/22 01:35:32;;;;;;;;;;;9.80;99.90;;;;;;4981475;28;20011;-79
2022/05/22 01:37:58;;;;;;;;;;;9.70;99.90;;;;;;4979121;28;19979;-79
2022/05/22 01:40:24;;;;;;;;;;;9.60;99.90;;;;;;4976179;28;20559;-79
2022/05/22 01:42:50;;;;;;;;;;;9.70;99.90;;;;;;4976548;28;20398;-79
2022/05/22 01:45:17;;;;;;;;;;;9.60;99.90;;;;;;4975774;28;19933;-78
2022/05/22 01:47:43;;;;;;;;;;;9.50;99.90;;;;;;4977794;28;19976;-78
2022/05/22 01:50:09;;;;;;;;;;;9.50;99.90;;;;;;4958064;28;20441;-79
2022/05/22 01:52:35;;;;;;;;;;;9.50;99.90;;;;;;4981817;28;20646;-79
2022/05/22 01:55:00;;;;;;;;;;;9.50;99.90;;;;;;4982320;28;19933;-78
2022/05/22 01:57:27;;;;;;;;;;;9.50;99.90;;;;;;4980262;28;21161;-78
2022/05/22 01:59:53;;;;;;;;;;;9.60;99.90;;;;;;4960550;28;20850;-79
2022/05/22 02:02:19;;;;;;;;;;;9.40;99.90;;;;;;4976013;28;19929;-78
2022/05/22 02:04:44;;;;;;;;;;;9.40;99.90;;;;;;4960365;28;19976;-79
2022/05/22 02:09:54;;;;;;;;;;;9.50;99.90;;;;;;4964086;28;20024;-78
2022/05/22 02:12:20;;;;;;;;;;;9.70;99.90;;;;;;4978244;28;19925;-78
2022/05/22 02:14:46;;;;;;;;;;;9.60;99.90;;;;;;4968160;28;20388;-78
2022/05/22 02:17:11;;;;;;;;;;;9.60;99.90;;;;;;4945834;28;19927;-78
2022/05/22 02:19:37;;;;;;;;;;;9.60;99.90;;;;;;4977255;28;19961;-79
2022/05/22 02:22:03;;;;;;;;;;;9.50;99.90;;;;;;4972101;28;20038;-79
2022/05/22 02:24:29;;;;;;;;;;;9.50;99.90;;;;;;4956345;28;19925;-79
2022/05/22 02:26:55;;;;;;;;;;;9.50;99.90;;;;;;4956868;28;19932;-79
2022/05/22 02:29:21;;;;;;;;;;;9.40;99.90;;;;;;4953976;28;19957;-79
2022/05/22 02:31:47;;;;;;;;;;;9.50;99.90;;;;;;4956322;28;19992;-79
2022/05/22 02:34:12;;;;;;;;;;;9.40;99.90;;;;;;4949708;28;19929;-79
2022/05/22 02:36:38;;;;;;;;;;;9.40;99.90;;;;;;4960017;28;20048;-79
2022/05/22 02:39:04;;;;;;;;;;;9.20;99.90;;;;;;4962648;28;20008;-79
2022/05/22 02:41:29;;;;;;;;;;;9.10;99.90;;;;;;4959120;28;20008;-79
2022/05/22 02:43:55;;;;;;;;;;;9.00;99.90;;;;;;4960879;28;20530;-79
2022/05/22 02:46:22;;;;;;;;;;;9.00;99.90;;;;;;4928376;28;19960;-79
2022/05/22 02:48:47;;;;;;;;;;;9.00;99.90;;;;;;4942632;28;20282;-79
2022/05/22 02:51:14;;;;;;;;;;;9.00;99.90;;;;;;4923007;28;22264;-79
2022/05/22 02:53:40;;;;;;;;;;;9.00;99.90;;;;;;4958271;28;20388;-79
2022/05/22 02:56:13;;;;;;;;;;;9.10;99.90;;;;;;4954017;28;20303;-79
2022/05/22 02:58:39;;;;;;;;;;;9.10;99.90;;;;;;4954243;28;19925;-79
2022/05/22 03:01:04;;;;;;;;;;;9.10;99.90;;;;;;4957394;28;19944;-79
2022/05/22 03:03:31;;;;;;;;;;;9.10;99.90;;;;;;4953825;28;19932;-79
2022/05/22 03:08:41;;;;;;;;;;;9.00;99.90;;;;;;4953806;28;19933;-80
2022/05/22 03:11:07;;;;;;;;;;;8.90;99.90;;;;;;4958508;28;19964;-79
2022/05/22 03:13:33;;;;;;;;;;;8.80;99.90;;;;;;4958427;28;19996;-79
2022/05/22 03:15:58;;;;;;;;;;;8.80;99.90;;;;;;4955925;28;20744;-79
2022/05/22 03:18:24;;;;;;;;;;;8.70;99.90;;;;;;4959111;28;20683;-79
2022/05/22 03:20:50;;;;;;;;;;;8.80;99.90;;;;;;4954135;28;20639;-80
2022/05/22 03:23:16;;;;;;;;;;;8.70;99.90;;;;;;4951025;28;20509;-79
2022/05/22 03:25:42;;;;;;;;;;;8.70;99.90;;;;;;4937414;28;19926;-79
2022/05/22 03:28:08;;;;;;;;;;;8.60;99.90;;;;;;4939270;28;19933;-79
2022/05/22 03:30:34;;;;;;;;;;;8.70;99.90;;;;;;4951928;28;19980;-80
2022/05/22 03:32:59;;;;;;;;;;;8.80;99.90;;;;;;4948739;28;19925;-79
2022/05/22 03:35:25;;;;;;;;;;;8.80;99.90;;;;;;4956749;28;19936;-79
2022/05/22 03:37:51;;;;;;;;;;;8.80;99.90;;;;;;4971243;28;19937;-79
2022/05/22 03:40:17;;;;;;;;;;;8.70;99.90;;;;;;4969760;28;19925;-79
2022/05/22 03:42:42;;;;;;;;;;;8.70;99.90;;;;;;4976331;28;19976;-80
2022/05/22 03:45:09;;;;;;;;;;;8.80;99.90;;;;;;4970127;28;20071;-80
2022/05/22 03:47:34;;;;;;;;;;;8.80;99.90;;;;;;4974643;28;20020;-80
2022/05/22 03:50:04;;;;;;;;;;;8.80;99.90;;;;;;4974383;28;20304;-79
2022/05/22 03:52:34;;;;;;;;;;;8.80;99.90;;;;;;4972246;28;20084;-80
2022/05/22 03:54:59;;;;;;;;;;;8.80;99.90;;;;;;4960850;28;20056;-80
2022/05/22 03:57:25;;;;;;;;;;;8.70;99.90;;;;;;4966850;28;21225;-79
2022/05/22 03:59:51;;;;;;;;;;;8.80;99.90;;;;;;4969734;28;19930;-79
2022/05/22 04:02:16;;;;;;;;;;;8.80;99.90;;;;;;4950167;28;20800;-79
2022/05/22 04:04:42;;;;;;;;;;;8.90;99.90;;;;;;4930030;28;19968;-79
2022/05/22 04:07:08;;;;;;;;;;;8.90;99.90;;;;;;4970038;28;19980;-80
2022/05/22 04:09:34;;;;;;;;;;;8.90;99.90;;;;;;4965939;28;19925;-79
2022/05/22 04:12:00;;;;;;;;;;;8.90;99.90;;;;;;4969455;28;20434;-80
2022/05/22 04:14:25;;;;;;;;;;;8.90;99.90;;;;;;4946807;28;20212;-80
2022/05/22 04:16:51;;;;;;;;;;;9.00;99.90;;;;;;4960511;28;20323;-80
2022/05/22 04:19:17;;;;;;;;;;;9.00;99.90;;;;;;4954741;28;20033;-80
2022/05/22 04:21:44;;;;;;;;;;;9.00;99.90;;;;;;4947849;28;19930;-80
2022/05/22 04:26:54;;;;;;;;;;;9.00;99.90;;;;;;4968769;28;19926;-80
2022/05/22 04:29:19;;;;;;;;;;;9.10;99.90;;;;;;4966037;28;19930;-80
2022/05/22 04:31:45;;;;;;;;;;;9.10;99.90;;;;;;4954413;28;19921;-80
2022/05/22 04:34:11;;;;;;;;;;;9.20;99.90;;;;;;4968479;28;19926;-80
2022/05/22 04:36:36;;;;;;;;;;;9.20;99.90;;;;;;4970943;28;20442;-80
2022/05/22 04:39:02;;;;;;;;;;;9.30;99.90;;;;;;4951713;28;20446;-80
2022/05/22 04:41:28;;;;;;;;;;;9.50;99.90;;;;;;4949781;28;19964;-80
2022/05/22 04:43:54;;;;;;;;;;;9.60;99.90;;;;;;4954274;28;19926;-79
2022/05/22 04:46:19;;;;;;;;;;;9.90;99.90;;;;;;4968534;28;19969;-79
2022/05/22 04:48:45;;;;;;;;;;;10.40;99.90;;;;;;4971343;28;20450;-80
2022/05/22 04:51:11;;;;;;;;;;;11.00;99.90;;;;;;4970656;28;19953;-80
2022/05/22 04:53:36;;;;;;;;;;;12.10;99.90;;;;;;4969422;28;19949;-80
2022/05/22 04:56:02;;;;;;;;;;;13.20;99.90;;;;;;4975304;28;19979;-80
2022/05/22 04:58:28;;;;;;;;;;;13.70;99.90;;;;;;4969441;28;20011;-80
2022/05/22 05:00:53;;;;;;;;;;;14.40;99.90;;;;;;4973918;28;19925;-80
2022/05/22 05:03:19;;;;;;;;;;;14.70;99.90;;;;;;4974728;28;19982;-80
2022/05/22 05:05:51;;;;;;;;;;;14.80;99.90;;;;;;4971911;28;19926;-79
2022/05/22 05:08:17;;;;;;;;;;;15.60;99.90;;;;;;4951830;28;19926;-81
2022/05/22 05:10:44;;;;;;;;;;;16.30;99.90;;;;;;4970890;28;20748;-80
2022/05/22 05:13:10;;;;;;;;;;;17.40;99.90;;;;;;4970837;28;19929;-80
2022/05/22 05:15:35;;;;;;;;;;;17.70;99.90;;;;;;4970045;28;20503;-80
2022/05/22 05:18:01;;;;;;;;;;;18.50;99.90;;;;;;4954556;28;21371;-80
2022/05/22 05:20:27;;;;;;;;;;;19.20;99.90;;;;;;4971068;28;20003;-80
2022/05/22 05:22:53;;;;;;;;;;;19.90;99.90;;;;;;4983520;28;20255;-80
2022/05/22 05:25:19;;;;;;;;;;;20.40;99.90;;;;;;4993594;28;20018;-80
2022/05/22 05:27:45;;;;;;;;;;;20.70;99.90;;;;;;4993927;28;20421;-80
2022/05/22 05:30:12;;;;;;;;;;;21.20;99.90;;;;;;4991148;28;19925;-80
2022/05/22 05:32:37;;;;;;;;;;;21.90;99.90;;;;;;4970926;28;19933;-80
2022/05/22 05:35:05;;;;;;;;;;;21.90;99.90;;;;;;4990440;28;19930;-80
2022/05/22 05:37:30;;;;;;;;;;;22.00;99.90;;;;;;4989173;28;19972;-79
2022/05/22 05:39:56;;;;;;;;;;;21.80;99.90;;;;;;4992648;28;20036;-80
2022/05/22 05:42:23;;;;;;;;;;;22.20;99.90;;;;;;4995743;28;19929;-80
2022/05/22 05:44:48;;;;;;;;;;;20.90;99.90;;;;;;4973796;28;19925;-80
2022/05/22 05:47:14;;;;;;;;;;;19.90;99.90;;;;;;4991398;28;20572;-79
2022/05/22 05:49:40;;;;;;;;;;;19.30;99.90;;;;;;4993014;28;20387;-79
2022/05/22 05:52:06;;;;;;;;;;;18.90;99.90;;;;;;4998978;28;19925;-79
2022/05/22 05:54:32;;;;;;;;;;;19.20;99.90;;;;;;4992730;28;20278;-80
2022/05/22 05:56:58;;;;;;;;;;;19.10;99.90;;;;;;4989503;28;19925;-79
2022/05/22 05:59:24;;;;;;;;;;;19.40;99.90;;;;;;4974488;28;19984;-80
2022/05/22 06:01:50;;;;;;;;;;;19.30;99.90;;;;;;4990052;28;19979;-80
2022/05/22 06:04:15;;;;;;;;;;;19.40;99.90;;;;;;4971932;28;19929;-80
2022/05/22 06:06:41;;;;;;;;;;;19.50;99.90;;;;;;4994227;28;19925;-80
2022/05/22 06:09:07;;;;;;;;;;;19.70;99.90;;;;;;4991028;28;20305;-80
2022/05/22 06:11:32;;;;;;;;;;;20.20;99.90;;;;;;4987241;28;19983;-80
2022/05/22 06:13:58;;;;;;;;;;;19.90;99.90;;;;;;4990494;28;20003;-79
2022/05/22 06:16:26;;;;;;;;;;;19.90;99.90;;;;;;4991432;28;19975;-79
2022/05/22 06:18:52;;;;;;;;;;;19.60;99.90;;;;;;4985823;28;20012;-79
2022/05/22 06:21:19;;;;;;;;;;;19.40;99.90;;;;;;4978861;28;19925;-80
2022/05/22 06:23:45;;;;;;;;;;;19.50;99.90;;;;;;4987790;28;20054;-80
2022/05/22 06:26:12;;;;;;;;;;;19.60;99.90;;;;;;4988835;28;20424;-78
2022/05/22 06:28:38;;;;;;;;;;;19.60;99.90;;;;;;4986266;28;20032;-79
2022/05/22 06:31:04;;;;;;;;;;;19.30;99.90;;;;;;4991551;28;20655;-79
2022/05/22 06:33:30;;;;;;;;;;;19.40;99.90;;;;;;4989025;28;19925;-82
2022/05/22 06:35:56;;;;;;;;;;;19.60;99.90;;;;;;4970473;28;20413;-80
2022/05/22 06:41:07;;;;;;;;;;;19.90;99.90;;;;;;4987749;28;19929;-80
2022/05/22 06:43:33;;;;;;;;;;;19.90;99.90;;;;;;4988634;28;19933;-81
2022/05/22 06:45:59;;;;;;;;;;;19.70;99.90;;;;;;4985434;28;19925;-80
2022/05/22 06:48:25;;;;;;;;;;;19.60;99.90;;;;;;4983886;28;19925;-81
2022/05/22 06:50:50;;;;;;;;;;;19.90;99.90;;;;;;4977754;28;20795;-81
2022/05/22 06:53:16;;;;;;;;;;;19.60;99.90;;;;;;4983738;28;19984;-79
2022/05/22 06:55:42;;;;;;;;;;;19.70;99.90;;;;;;4971891;28;19967;-79
2022/05/22 06:58:07;;;;;;;;;;;19.50;99.90;;;;;;4953564;28;19929;-80
2022/05/22 07:00:33;;;;;;;;;;;19.70;99.90;;;;;;4950657;28;21420;-79
2022/05/22 07:02:59;;;;;;;;;;;20.20;99.90;;;;;;4972075;28;19932;-81
2022/05/22 07:05:26;;;;;;;;;;;19.90;99.90;;;;;;4953033;28;20539;-80
2022/05/22 07:07:51;;;;;;;;;;;20.10;99.90;;;;;;4973182;28;19925;-79
2022/05/22 07:10:17;;;;;;;;;;;19.80;99.90;;;;;;4970612;28;19947;-79
2022/05/22 07:12:44;;;;;;;;;;;19.60;99.90;;;;;;4969519;28;20627;-80
2022/05/22 07:15:10;;;;;;;;;;;19.80;99.90;;;;;;4944259;28;20017;-80
2022/05/22 07:17:37;;;;;;;;;;;20.30;99.90;;;;;;4962007;28;19929;-80
2022/05/22 07:20:03;;;;;;;;;;;19.90;99.90;;;;;;4974221;28;19929;-79
2022/05/22 07:22:29;;;;;;;;;;;20.10;99.90;;;;;;4973405;28;20634;-81
2022/05/22 07:24:55;;;;;;;;;;;20.20;99.90;;;;;;4971499;28;20008;-80
2022/05/22 07:27:22;;;;;;;;;;;20.40;99.90;;;;;;4974073;28;19936;-80
2022/05/22 07:29:47;;;;;;;;;;;20.30;99.90;;;;;;4975491;28;19936;-80
2022/05/22 07:32:14;;;;;;;;;;;20.00;99.90;;;;;;4974629;28;19929;-79
2022/05/22 07:34:40;;;;;;;;;;;20.00;99.90;;;;;;4975122;28;19925;-80
2022/05/22 07:37:07;;;;;;;;;;;19.90;99.90;;;;;;4974996;28;19957;-80
2022/05/22 07:39:33;;;;;;;;;;;20.30;99.90;;;;;;4958552;28;20410;-80
2022/05/22 07:41:59;;;;;;;;;;;20.10;99.90;;;;;;4972951;28;20056;-79
2022/05/22 07:44:24;;;;;;;;;;;20.20;99.90;;;;;;4974173;28;19925;-79
2022/05/22 07:46:50;;;;;;;;;;;20.40;99.90;;;;;;4974371;28;19924;-81
2022/05/22 07:52:04;;;;;;;;;;;20.70;99.90;;;;;;4961329;28;19933;-80
2022/05/22 07:54:32;;;;;;;;;;;20.40;99.90;;;;;;4947919;28;20422;-81
2022/05/22 07:56:58;;;;;;;;;;;20.70;99.90;;;;;;4963884;28;20678;-81
2022/05/22 07:59:23;;;;;;;;;;;20.70;99.90;;;;;;4970938;28;19925;-81
2022/05/22 08:01:49;;;;;;;;;;;20.80;99.90;;;;;;4969961;28;19971;-82
2022/05/22 08:04:15;;;;;;;;;;;21.00;99.90;;;;;;4948017;28;19929;-79
2022/05/22 08:06:40;;;;;;;;;;;21.30;99.90;;;;;;4960579;28;20091;-80
2022/05/22 08:09:06;;;;;;;;;;;21.00;99.90;;;;;;4965941;28;19925;-80
2022/05/22 08:11:32;;;;;;;;;;;21.10;99.90;;;;;;4971948;28;19987;-82
2022/05/22 08:13:57;;;;;;;;;;;21.10;99.90;;;;;;4980239;28;20322;-80
2022/05/22 08:16:23;;;;;;;;;;;20.80;99.90;;;;;;4979825;28;19933;-80
2022/05/22 08:18:49;;;;;;;;;;;21.20;99.90;;;;;;4977949;28;19975;-80
2022/05/22 08:21:15;;;;;;;;;;;21.50;99.90;;;;;;4982145;28;19929;-81
2022/05/22 08:23:40;;;;;;;;;;;21.60;99.90;;;;;;4966402;28;19932;-80
2022/05/22 08:26:06;;;;;;;;;;;21.10;99.90;;;;;;4979004;28;19941;-80
2022/05/22 08:28:32;;;;;;;;;;;21.30;99.90;;;;;;4993102;28;21014;-79
2022/05/22 08:30:57;;;;;;;;;;;21.50;99.90;;;;;;4987816;28;19925;-79
2022/05/22 08:33:23;;;;;;;;;;;21.50;99.90;;;;;;4992058;28;19925;-81
2022/05/22 08:35:49;;;;;;;;;;;20.30;99.90;;;;;;4990717;28;20559;-80
2022/05/22 08:38:14;;;;;;;;;;;21.40;99.90;;;;;;4992436;28;19929;-80
2022/05/22 08:40:46;;;;;;;;;;;21.70;99.90;;;;;;4988553;28;19929;-81
2022/05/22 08:43:20;;;;;;;;;;;20.90;99.90;;;;;;4994013;28;19925;-80
2022/05/22 08:45:46;;;;;;;;;;;21.00;99.90;;;;;;4989457;28;19922;-79
2022/05/22 08:48:14;;;;;;;;;;;21.60;99.90;;;;;;4991752;28;19937;-80
2022/05/22 08:50:41;;;;;;;;;;;21.20;99.90;;;;;;4975372;28;20367;-81
2022/05/22 08:53:15;;;;;;;;;;;21.60;99.90;;;;;;4978687;28;19933;-80
2022/05/22 09:01:35;;;;;;;;;;;22.10;99.90;;;;;;4978459;28;20266;-82
2022/05/22 09:04:01;;;;;;;;;;;21.90;99.90;;;;;;4982672;28;19929;-81
2022/05/22 09:06:29;;;;;;;;;;;22.20;99.90;;;;;;4983117;28;19932;-80
2022/05/22 09:08:55;;;;;;;;;;;22.60;99.90;;;;;;4982973;28;19929;-80
2022/05/22 09:11:30;;;;;;;;;;;22.50;99.90;;;;;;4947876;28;20441;-80
2022/05/22 09:14:05;;;;;;;;;;;22.10;99.90;;;;;;4982428;28;20009;-80
2022/05/22 09:16:36;;;;;;;;;;;21.50;99.90;;;;;;4984403;28;19948;-80
2022/05/22 09:19:09;;;;;;;;;;;20.60;99.90;;;;;;4979531;28;19929;-80
2022/05/22 09:21:53;;;;;;;;;;;21.30;99.90;;;;;;4962712;28;19925;-80
2022/05/22 09:24:19;;;;;;;;;;;21.60;99.90;;;;;;4979031;28;19931;-80
2022/05/22 09:27:07;;;;;;;;;;;21.10;99.90;;;;;;4973900;28;19925;-81
2022/05/22 09:29:37;;;;;;;;;;;20.80;99.90;;;;;;4963367;28;20701;-81
2022/05/22 09:32:26;;;;;;;;;;;20.40;99.90;;;;;;4972832;28;20312;-80
2022/05/22 09:34:58;;;;;;;;;;;20.30;99.90;;;;;;4939993;28;19966;-81
2022/05/22 09:37:23;;;;;;;;;;;21.00;99.90;;;;;;4951322;28;19990;-80
2022/05/22 09:39:56;;;;;;;;;;;21.00;99.90;;;;;;4954808;28;19940;-80
2022/05/22 09:42:43;;;;;;;;;;;21.30;99.90;;;;;;4961689;28;20911;-81
2022/05/22 09:45:15;;;;;;;;;;;21.40;99.90;;;;;;4966248;28;19932;-81
2022/05/22 09:48:16;;;;;;;;;;;22.00;99.90;;;;;;4955757;28;19925;-80
2022/05/22 09:50:42;;;;;;;;;;;22.20;99.90;;;;;;4889630;29;19950;-80
2022/05/22 09:53:13;;;;;;;;;;;22.30;99.90;;;;;;4955675;28;20859;-79
2022/05/22 09:55:46;;;;;;;;;;;21.50;99.90;;;;;;4959496;28;19926;-79
2022/05/22 09:58:30;;;;;;;;;;;22.20;99.90;;;;;;4975823;28;19922;-80
2022/05/22 10:00:56;;;;;;;;;;;22.30;99.90;;;;;;4976873;28;19979;-80
2022/05/22 10:03:22;;;;;;;;;;;21.30;99.90;;;;;;4958031;28;19929;-80
2022/05/22 10:06:00;;;;;;;;;;;21.60;99.90;;;;;;4967084;28;19932;-80
2022/05/22 10:08:49;;;;;;;;;;;20.90;99.90;;;;;;4967868;28;19925;-81
2022/05/22 10:11:15;;;;;;;;;;;20.60;99.90;;;;;;4961815;28;19926;-80
2022/05/22 10:14:01;;;;;;;;;;;21.20;99.90;;;;;;4967589;28;19937;-80
2022/05/22 10:17:02;;;;;;;;;;;21.40;99.90;;;;;;4986020;28;20007;-80
2022/05/22 10:19:34;;;;;;;;;;;22.00;99.90;;;;;;4938127;28;19930;-78
2022/05/22 10:22:18;;;;;;;;;;;22.50;99.90;;;;;;4981956;28;20295;-79
2022/05/22 10:24:50;;;;;;;;;;;22.20;99.90;;;;;;4990377;28;19975;-81
2022/05/22 10:27:19;;;;;;;;;;;22.20;99.90;;;;;;4989633;28;19936;-79
2022/05/22 10:29:54;;;;;;;;;;;21.80;99.90;;;;;;4986473;28;19935;-80
2022/05/22 10:32:28;;;;;;;;;;;22.20;99.90;;;;;;4982896;28;19931;-80
2022/05/22 10:34:59;;;;;;;;;;;21.70;99.90;;;;;;4967925;28;19952;-81
2022/05/22 10:37:35;;;;;;;;;;;21.70;99.90;;;;;;4993469;28;19925;-80
2022/05/22 10:40:05;;;;;;;;;;;22.10;99.90;;;;;;4990970;28;19972;-80
2022/05/22 10:42:45;;;;;;;;;;;21.90;99.90;;;;;;4990764;28;19931;-79
2022/05/22 10:45:16;;;;;;;;;;;21.90;99.90;;;;;;4994522;28;19932;-79
2022/05/22 10:47:41;;;;;;;;;;;21.60;99.90;;;;;;4996972;28;19925;-80
2022/05/22 10:50:26;;;;;;;;;;;21.50;99.90;;;;;;4994879;28;19988;-80
2022/05/22 10:52:52;;;;;;;;;;;20.40;99.90;;;;;;4998502;28;20044;-79
2022/05/22 10:55:18;;;;;;;;;;;21.10;99.90;;;;;;4993351;28;19925;-80
2022/05/22 10:57:52;;;;;;;;;;;20.30;99.90;;;;;;4992131;28;19936;-78
2022/05/22 11:00:18;;;;;;;;;;;20.90;99.90;;;;;;4987550;28;20374;-81
2022/05/22 11:02:43;;;;;;;;;;;19.80;99.90;;;;;;4997748;28;19958;-80
2022/05/22 11:05:17;;;;;;;;;;;21.00;99.90;;;;;;4993146;28;19932;-81
2022/05/22 11:07:45;;;;;;;;;;;21.90;99.90;;;;;;4992927;28;20390;-80
2022/05/22 11:10:31;;;;;;;;;;;22.30;99.90;;;;;;4994558;28;19925;-80
2022/05/22 11:13:01;;;;;;;;;;;22.70;99.90;;;;;;4974611;28;19929;-80
2022/05/22 11:15:28;;;;;;;;;;;23.20;99.90;;;;;;4973856;28;20011;-80
2022/05/22 11:18:06;;;;;;;;;;;23.20;99.90;;;;;;4988747;28;19940;-79
2022/05/22 11:20:32;;;;;;;;;;;23.50;99.90;;;;;;4968265;28;19925;-79
2022/05/22 11:23:01;;;;;;;;;;;23.60;99.90;;;;;;4984839;28;19932;-78
2022/05/22 11:25:31;;;;;;;;;;;24.00;99.90;;;;;;4992857;28;19934;-79
2022/05/22 11:28:05;;;;;;;;;;;21.00;92.70;;;;;;4988301;28;19922;-79
2022/05/22 11:30:50;;;;;;;;;;;22.60;99.90;;;;;;4988046;28;20007;-79
2022/05/22 11:33:28;;;;;;;;;;;22.50;96.70;;;;;;4987007;28;19973;-81
2022/05/22 11:35:59;;;;;;;;;;;22.30;99.90;;;;;;4998167;28;19929;-80
2022/05/22 11:38:44;;;;;;;;;;;23.40;99.90;;;;;;4995800;28;19975;-80
2022/05/22 11:41:09;;;;;;;;;;;22.50;95.80;;;;;;4990361;28;19925;-80
2022/05/22 11:43:47;;;;;;;;;;;20.80;97.50;;;;;;4995475;28;19972;-79
2022/05/22 11:46:16;;;;;;;;;;;22.10;99.90;;;;;;4996266;28;19952;-79
2022/05/22 11:48:45;;;;;;;;;;;22.40;99.90;;;;;;4971568;28;19925;-79
2022/05/22 11:51:43;;;;;;;;;;;22.90;99.90;;;;;;4979569;28;20792;-79
2022/05/22 11:54:18;;;;;;;;;;;22.00;99.50;;;;;;4952763;28;21038;-80
2022/05/22 11:57:02;;;;;;;;;;;23.20;99.90;;;;;;4992220;28;20489;-80
2022/05/22 11:59:49;;;;;;;;;;;23.20;97.80;;;;;;4995431;28;20012;-80
2022/05/22 12:02:30;;;;;;;;;;;21.30;98.20;;;;;;4977307;28;19929;-80
2022/05/22 12:05:13;;;;;;;;;;;20.50;97.70;;;;;;4995008;28;19929;-79
2022/05/22 12:07:57;;;;;;;;;;;19.90;99.90;;;;;;4996170;28;20458;-80
2022/05/22 12:10:26;;;;;;;;;;;20.10;99.90;;;;;;4996296;28;19929;-80
2022/05/22 12:12:58;;;;;;;;;;;20.80;99.90;;;;;;4973724;28;19925;-79
2022/05/22 12:15:33;;;;;;;;;;;21.60;99.90;;;;;;4999965;28;19929;-79
2022/05/22 12:18:05;;;;;;;;;;;21.00;99.90;;;;;;5002556;28;20019;-80
2022/05/22 12:20:37;;;;;;;;;;;21.30;96.70;;;;;;4998436;28;19925;-80
2022/05/22 12:23:08;;;;;;;;;;;21.90;99.90;;;;;;5004131;28;19931;-80
2022/05/22 12:25:42;;;;;;;;;;;21.60;99.90;;;;;;5006170;28;20517;-79
2022/05/22 12:28:38;;;;;;;;;;;21.90;94.10;;;;;;5004318;28;19931;-79
2022/05/22 12:31:17;;;;;;;;;;;22.20;99.90;;;;;;4956975;28;19939;-80
2022/05/22 12:33:43;;;;;;;;;;;22.30;99.90;;;;;;4963020;28;19978;-79
2022/05/22 12:36:10;;;;;;;;;;;22.60;99.70;;;;;;5006262;28;20435;-80
2022/05/22 12:38:41;;;;;;;;;;;22.70;99.90;;;;;;4980387;28;20505;-80
2022/05/22 12:41:12;;;;;;;;;;;22.20;95.30;;;;;;4995101;28;19936;-80
2022/05/22 12:43:39;;;;;;;;;;;22.80;94.50;;;;;;4978642;28;19925;-80
2022/05/22 12:46:07;;;;;;;;;;;21.80;90.90;;;;;;5002734;28;21065;-79
2022/05/22 12:48:33;;;;;;;;;;;21.90;97.30;;;;;;4972664;28;20456;-80
2022/05/22 12:51:05;;;;;;;;;;;23.30;99.90;;;;;;4997039;28;19941;-80
2022/05/22 12:53:31;;;;;;;;;;;24.00;99.90;;;;;;4982209;28;19983;-80
2022/05/22 12:56:04;;;;;;;;;;;24.10;97.80;;;;;;5002989;28;19971;-79
2022/05/22 12:58:36;;;;;;;;;;;23.60;97.60;;;;;;4987209;28;19931;-80
2022/05/22 13:01:02;;;;;;;;;;;20.60;93.20;;;;;;4992610;28;20798;-80
2022/05/22 13:03:34;;;;;;;;;;;20.40;97.70;;;;;;5000705;28;19925;-79
2022/05/22 13:06:04;;;;;;;;;;;20.60;99.60;;;;;;4994800;28;20115;-78
2022/05/22 13:08:41;;;;;;;;;;;21.40;99.90;;;;;;4972220;28;19926;-79
2022/05/22 13:11:09;;;;;;;;;;;20.80;97.10;;;;;;4992231;28;20311;-79
2022/05/22 13:13:45;;;;;;;;;;;20.30;97.80;;;;;;5002078;28;20008;-79
2022/05/22 13:16:11;;;;;;;;;;;20.40;96.40;;;;;;4972695;28;20457;-79
2022/05/22 13:18:47;;;;;;;;;;;20.50;96.90;;;;;;4990670;28;19925;-78
2022/05/22 13:21:26;;;;;;;;;;;21.00;99.90;;;;;;4999239;28;19925;-80
2022/05/22 13:24:01;;;;;;;;;;;21.60;99.90;;;;;;4957151;28;19985;-79
2022/05/22 13:26:27;;;;;;;;;;;20.90;95.20;;;;;;4966610;28;19932;-80
2022/05/22 13:29:25;;;;;;;;;;;21.20;99.90;;;;;;4956945;28;19977;-78
2022/05/22 13:31:55;;;;;;;;;;;22.60;99.90;;;;;;4933041;28;19929;-79
2022/05/22 13:34:24;;;;;;;;;;;22.90;92.80;;;;;;4953680;28;20259;-79
2022/05/22 13:36:55;;;;;;;;;;;23.80;99.90;;;;;;4952596;28;19925;-80
2022/05/22 13:39:29;;;;;;;;;;;23.00;95.20;;;;;;4959770;28;19925;-78
2022/05/22 13:42:14;;;;;;;;;;;22.40;93.10;;;;;;4977507;28;19933;-79
2022/05/22 13:44:59;;;;;;;;;;;23.30;99.90;;;;;;4973616;28;20383;-79
2022/05/22 13:47:43;;;;;;;;;;;22.90;97.90;;;;;;4976835;28;19925;-79
2022/05/22 13:53:17;;;;;;;;;;;23.10;97.70;;;;;;4972820;28;20367;-81
2022/05/22 13:55:45;;;;;;;;;;;23.20;99.90;;;;;;4975842;28;20044;-78
2022/05/22 13:58:16;;;;;;;;;;;23.20;95.30;;;;;;4977816;28;20823;-81
2022/05/22 14:00:43;;;;;;;;;;;22.80;94.20;;;;;;4975779;28;19930;-79
2022/05/22 14:03:33;;;;;;;;;;;23.60;99.90;;;;;;4974539;28;20040;-80
2022/05/22 14:06:04;;;;;;;;;;;22.20;89.70;;;;;;4971674;28;19930;-78
2022/05/22 14:08:35;;;;;;;;;;;22.00;99.90;;;;;;4970013;28;19929;-79
2022/05/22 14:11:01;;;;;;;;;;;23.20;99.90;;;;;;4970766;28;19976;-79
2022/05/22 14:13:27;;;;;;;;;;;22.80;94.80;;;;;;4973742;28;20020;-78
2022/05/22 14:16:00;;;;;;;;;;;22.10;94.50;;;;;;4975645;28;19926;-82
2022/05/22 14:18:28;;;;;;;;;;;22.50;92.70;;;;;;4967601;28;19929;-79
2022/05/22 14:20:55;;;;;;;;;;;22.70;92.40;;;;;;4971513;28;20016;-79
2022/05/22 14:23:22;;;;;;;;;;;23.30;99.30;;;;;;4941503;28;19929;-79
2022/05/22 14:25:53;;;;;;;;;;;22.30;95.40;;;;;;4978841;28;20068;-78
2022/05/22 14:28:25;;;;;;;;;;;21.60;97.00;;;;;;4966361;28;19926;-78
2022/05/22 14:30:51;;;;;;;;;;;21.70;98.30;;;;;;4968314;28;19926;-78
2022/05/22 14:33:19;;;;;;;;;;;21.80;90.80;;;;;;4970120;28;19925;-81
2022/05/22 14:35:47;;;;;;;;;;;22.20;97.80;;;;;;4974108;28;19930;-79
2022/05/22 14:38:26;;;;;;;;;;;21.80;91.30;;;;;;4983004;28;20155;-80
2022/05/22 14:40:52;;;;;;;;;;;21.40;96.40;;;;;;4967527;28;20232;-79
2022/05/22 14:43:19;;;;;;;;;;;21.10;96.10;;;;;;4955956;28;20434;-81
2022/05/22 14:45:47;;;;;;;;;;;21.50;94.80;;;;;;4972551;28;19925;-79
2022/05/22 14:48:14;;;;;;;;;;;21.60;99.90;;;;;;4967818;28;20030;-79
2022/05/22 14:50:48;;;;;;;;;;;21.80;98.80;;;;;;4949083;28;21081;-80
2022/05/22 14:53:41;;;;;;;;;;;22.50;98.70;;;;;;4968117;28;19925;-78
2022/05/22 14:56:12;;;;;;;;;;;21.90;91.50;;;;;;4965842;28;19926;-77